createdAt,value
2022-09-10T00:01:25.805Z,93.42
2022-09-10T00:03:54.769Z,93.51
2022-09-10T00:06:25.070Z,93.95
2022-09-10T00:08:52.933Z,93.80
2022-09-10T00:11:20.948Z,93.75
2022-09-10T00:13:47.993Z,93.29
2022-09-10T00:16:16.372Z,93.86
2022-09-10T00:18:43.396Z,93.66
2022-09-10T00:21:13.631Z,93.78
2022-09-10T00:23:41.214Z,94.45
2022-09-10T00:26:20.120Z,95.11
2022-09-10T00:28:47.172Z,96.33
2022-09-10T00:31:14.132Z,97.29
2022-09-10T00:33:42.046Z,97.80
2022-09-10T00:36:24.554Z,98.74
2022-09-10T00:38:54.959Z,99.20
2022-09-10T00:41:25.063Z,99.80
2022-09-10T00:43:56.172Z,100.00
2022-09-10T00:46:32.067Z,100.00
2022-09-10T00:49:02.695Z,100.00
2022-09-10T00:51:33.020Z,100.00
2022-09-10T00:54:01.688Z,100.00
2022-09-10T00:56:30.062Z,100.00
2022-09-10T00:58:57.056Z,100.00
2022-09-10T01:01:24.133Z,100.00
2022-09-10T01:03:52.658Z,100.00
2022-09-10T01:06:19.407Z,100.00
2022-09-10T01:08:46.329Z,100.00
2022-09-10T01:11:44.982Z,100.00
2022-09-10T01:14:20.934Z,100.00
2022-09-10T01:17:12.346Z,100.00
2022-09-10T01:19:41.228Z,100.00
2022-09-10T01:22:26.669Z,100.00
2022-09-10T01:24:55.981Z,100.00
2022-09-10T01:27:31.875Z,100.00
2022-09-10T01:30:03.548Z,100.00
2022-09-10T01:32:35.261Z,100.00
2022-09-10T01:35:15.149Z,100.00
2022-09-10T01:37:54.713Z,100.00
2022-09-10T01:40:30.121Z,100.00
2022-09-10T01:43:09.800Z,100.00
2022-09-10T01:46:06.936Z,100.00
2022-09-10T01:49:06.164Z,100.00
2022-09-10T01:51:43.604Z,100.00
2022-09-10T01:54:37.228Z,100.00
2022-09-10T01:57:10.505Z,100.00
2022-09-10T01:59:38.701Z,100.00
2022-09-10T02:02:19.663Z,100.00
2022-09-10T02:04:50.623Z,100.00
2022-09-10T02:07:22.875Z,100.00
2022-09-10T02:09:53.364Z,100.00
2022-09-10T02:12:22.716Z,100.00
2022-09-10T02:14:57.788Z,100.00
2022-09-10T02:17:46.918Z,100.00
2022-09-10T02:20:14.854Z,100.00
2022-09-10T02:22:51.797Z,100.00
2022-09-10T02:25:18.773Z,100.00
2022-09-10T02:27:45.859Z,100.00
2022-09-10T02:30:13.361Z,100.00
2022-09-10T02:32:40.103Z,100.00
2022-09-10T02:35:07.626Z,100.00
2022-09-10T02:37:34.431Z,100.00
2022-09-10T02:40:01.320Z,100.00
2022-09-10T02:42:28.127Z,100.00
2022-09-10T02:44:55.062Z,100.00
2022-09-10T02:47:21.912Z,100.00
2022-09-10T02:49:48.692Z,100.00
2022-09-10T02:52:15.642Z,100.00
2022-09-10T02:54:42.441Z,100.00
2022-09-10T02:57:12.014Z,100.00
2022-09-10T02:59:38.759Z,100.00
2022-09-10T03:02:06.074Z,100.00
2022-09-10T03:04:33.131Z,100.00
2022-09-10T03:06:59.905Z,100.00
2022-09-10T03:09:28.881Z,100.00
2022-09-10T03:11:55.795Z,100.00
2022-09-10T03:14:24.631Z,100.00
2022-09-10T03:16:51.759Z,100.00
2022-09-10T03:19:18.713Z,100.00
2022-09-10T03:21:47.516Z,100.00
2022-09-10T03:24:15.541Z,100.00
2022-09-10T03:26:45.156Z,100.00
2022-09-10T03:29:15.517Z,100.00
2022-09-10T03:31:45.445Z,100.00
2022-09-10T03:34:14.491Z,100.00
2022-09-10T03:36:41.866Z,100.00
2022-09-10T03:39:10.723Z,100.00
2022-09-10T03:41:37.536Z,100.00
2022-09-10T03:44:05.332Z,100.00
2022-09-10T03:46:32.629Z,100.00
2022-09-10T03:49:02.542Z,100.00
2022-09-10T03:51:31.142Z,100.00
2022-09-10T03:53:59.770Z,100.00
2022-09-10T03:56:28.124Z,100.00
2022-09-10T03:58:54.893Z,100.00
2022-09-10T04:01:21.826Z,100.00
2022-09-10T04:03:49.338Z,100.00
2022-09-10T04:06:16.579Z,100.00
2022-09-10T04:08:46.383Z,100.00
2022-09-10T04:11:15.679Z,100.00
2022-09-10T04:13:43.379Z,100.00
2022-09-10T04:16:12.135Z,100.00
2022-09-10T04:18:40.099Z,100.00
2022-09-10T04:21:06.987Z,100.00
2022-09-10T04:23:35.035Z,100.00
2022-09-10T04:26:17.476Z,100.00
2022-09-10T04:28:47.472Z,100.00
2022-09-10T04:31:16.125Z,100.00
2022-09-10T04:33:43.106Z,100.00
2022-09-10T04:36:09.875Z,100.00
2022-09-10T04:38:41.719Z,100.00
2022-09-10T04:41:09.866Z,100.00
2022-09-10T04:43:38.749Z,100.00
2022-09-10T04:46:06.539Z,100.00
2022-09-10T04:48:35.427Z,100.00
2022-09-10T04:51:18.427Z,100.00
2022-09-10T04:53:51.528Z,100.00
2022-09-10T04:56:20.656Z,100.00
2022-09-10T04:58:48.829Z,100.00
2022-09-10T05:01:16.013Z,100.00
2022-09-10T05:03:45.385Z,100.00
2022-09-10T05:06:13.090Z,100.00
2022-09-10T05:08:40.744Z,100.00
2022-09-10T05:11:08.989Z,100.00
2022-09-10T05:13:35.757Z,100.00
2022-09-10T05:16:03.022Z,100.00
2022-09-10T05:18:32.255Z,100.00
2022-09-10T05:20:59.950Z,100.00
2022-09-10T05:23:28.192Z,100.00
2022-09-10T05:25:57.109Z,100.00
2022-09-10T05:28:24.916Z,100.00
2022-09-10T05:30:52.503Z,100.00
2022-09-10T05:33:22.438Z,100.00
2022-09-10T05:35:51.875Z,100.00
2022-09-10T05:38:20.346Z,100.00
2022-09-10T05:40:48.555Z,100.00
2022-09-10T05:43:15.606Z,100.00
2022-09-10T05:45:44.613Z,100.00
2022-09-10T05:48:11.442Z,100.00
2022-09-10T05:50:38.624Z,100.00
2022-09-10T05:53:05.906Z,100.00
2022-09-10T05:55:33.336Z,100.00
2022-09-10T05:58:00.704Z,100.00
2022-09-10T06:00:27.910Z,100.00
2022-09-10T06:03:01.116Z,100.00
2022-09-10T06:05:36.999Z,100.00
2022-09-10T06:08:08.388Z,100.00
2022-09-10T06:10:39.129Z,100.00
2022-09-10T06:13:07.341Z,100.00
2022-09-10T06:15:36.021Z,99.32
2022-09-10T06:18:03.119Z,97.88
2022-09-10T06:20:31.041Z,96.47
2022-09-10T06:22:58.067Z,93.51
2022-09-10T06:25:24.816Z,90.24
2022-09-10T06:27:51.582Z,86.18
2022-09-10T06:30:20.893Z,84.18
2022-09-10T06:32:48.555Z,83.96
2022-09-10T06:35:16.112Z,81.72
2022-09-10T06:37:44.247Z,78.83
2022-09-10T06:40:13.372Z,76.69
2022-09-10T06:42:42.283Z,75.80
2022-09-10T06:45:13.253Z,74.03
2022-09-10T06:48:37.612Z,73.47
2022-09-10T06:50:57.253Z,72.35
2022-09-10T06:53:29.593Z,72.57
2022-09-10T06:55:59.725Z,70.93
2022-09-10T06:58:30.574Z,68.98
2022-09-10T07:00:57.704Z,67.33
2022-09-10T07:03:25.353Z,64.39
2022-09-10T07:05:53.418Z,62.58
2022-09-10T07:08:22.548Z,61.86
2022-09-10T07:11:00.453Z,59.81
2022-09-10T07:13:27.764Z,59.80
2022-09-10T07:15:55.690Z,59.40
2022-09-10T07:18:23.298Z,57.92
2022-09-10T07:20:50.543Z,57.32
2022-09-10T07:23:20.370Z,56.22
2022-09-10T07:25:49.260Z,54.54
2022-09-10T07:28:36.327Z,54.08
2022-09-10T07:31:28.019Z,53.88
2022-09-10T07:34:01.063Z,53.44
2022-09-10T07:36:29.087Z,52.27
2022-09-10T07:38:58.931Z,51.68
2022-09-10T07:41:29.687Z,51.71
2022-09-10T07:43:59.466Z,49.33
2022-09-10T07:46:31.227Z,49.88
2022-09-10T07:49:00.260Z,48.95
2022-09-10T07:51:29.913Z,49.04
2022-09-10T07:53:59.910Z,48.26
2022-09-10T07:56:35.037Z,47.45
2022-09-10T07:59:03.894Z,47.85
2022-09-10T08:01:37.810Z,45.05
2022-09-10T08:04:06.428Z,46.41
2022-09-10T08:06:36.205Z,46.26
2022-09-10T08:09:09.787Z,45.65
2022-09-10T08:11:42.679Z,46.39
2022-09-10T08:14:13.435Z,45.55
2022-09-10T08:16:44.404Z,47.34
2022-09-10T08:19:15.010Z,47.57
2022-09-10T08:21:42.085Z,47.05
2022-09-10T08:24:10.897Z,47.01
2022-09-10T08:26:40.230Z,47.28
2022-09-10T08:29:07.340Z,47.52
2022-09-10T08:31:34.819Z,47.14
2022-09-10T08:34:15.640Z,47.18
2022-09-10T08:36:48.982Z,47.55
2022-09-10T08:39:16.199Z,46.99
2022-09-10T08:41:55.832Z,48.21
2022-09-10T08:44:41.316Z,45.49
2022-09-10T08:47:35.425Z,44.82
2022-09-10T08:50:11.719Z,44.43
2022-09-10T08:52:58.134Z,43.41
2022-09-10T08:55:31.905Z,45.11
2022-09-10T08:58:19.058Z,43.34
2022-09-10T09:00:52.288Z,42.53
2022-09-10T09:03:32.784Z,43.46
2022-09-10T09:06:08.001Z,44.64
2022-09-10T09:08:49.698Z,44.15
2022-09-10T09:11:32.535Z,44.31
2022-09-10T09:14:13.105Z,44.16
2022-09-10T09:17:06.849Z,44.07
2022-09-10T09:19:40.436Z,43.90
2022-09-10T09:22:12.099Z,45.01
2022-09-10T09:24:42.482Z,44.49
2022-09-10T09:27:18.390Z,45.17
2022-09-10T09:30:05.428Z,45.30
2022-09-10T09:32:40.981Z,45.71
2022-09-10T09:35:32.595Z,46.94
2022-09-10T09:38:08.123Z,47.66
2022-09-10T09:40:46.738Z,47.09
2022-09-10T09:43:42.627Z,47.31
2022-09-10T09:46:17.383Z,47.61
2022-09-10T09:48:53.584Z,46.58
2022-09-10T09:51:25.357Z,45.99
2022-09-10T09:54:25.775Z,45.71
2022-09-10T09:56:50.943Z,46.36
2022-09-10T09:59:26.899Z,45.43
2022-09-10T10:01:57.204Z,46.16
2022-09-10T10:04:26.949Z,45.17
2022-09-10T10:06:58.637Z,45.30
2022-09-10T10:09:31.211Z,45.92
2022-09-10T10:12:00.121Z,45.22
2022-09-10T10:14:32.718Z,45.09
2022-09-10T10:17:01.026Z,45.28
2022-09-10T10:19:36.892Z,43.96
2022-09-10T10:22:18.604Z,44.15
2022-09-10T10:24:49.735Z,41.99
2022-09-10T10:27:27.548Z,41.33
2022-09-10T10:30:00.275Z,38.67
2022-09-10T10:32:52.619Z,39.90
2022-09-10T10:35:53.302Z,37.95
2022-09-10T10:38:29.495Z,37.29
2022-09-10T10:41:31.854Z,36.88
2022-09-10T10:44:13.221Z,37.81
2022-09-10T10:46:50.489Z,36.24
2022-09-10T10:49:26.059Z,34.96
2022-09-10T10:52:11.341Z,35.40
2022-09-10T10:55:10.710Z,34.97
2022-09-10T10:57:46.128Z,34.64
2022-09-10T11:00:16.897Z,34.19
2022-09-10T11:02:50.769Z,34.99
2022-09-10T11:05:41.433Z,34.08
2022-09-10T11:08:16.876Z,35.21
2022-09-10T11:10:51.895Z,35.51
2022-09-10T11:13:27.579Z,34.73
2022-09-10T11:16:01.435Z,34.05
2022-09-10T11:18:39.412Z,35.54
2022-09-10T11:21:31.700Z,36.54
2022-09-10T11:24:07.422Z,36.03
2022-09-10T11:26:44.567Z,36.90
2022-09-10T11:29:44.606Z,37.55
2022-09-10T11:32:21.790Z,37.64
2022-09-10T11:35:22.573Z,39.26
2022-09-10T11:37:52.201Z,51.17
2022-09-10T11:40:30.235Z,69.23
2022-09-10T11:43:03.664Z,85.68
2022-09-10T11:45:48.837Z,98.56
2022-09-10T11:48:32.664Z,100.00
2022-09-10T11:51:03.333Z,100.00
2022-09-10T11:53:30.507Z,100.00
2022-09-10T11:56:15.656Z,100.00
2022-09-10T11:59:10.538Z,100.00
2022-09-10T12:01:52.998Z,100.00
2022-09-10T12:04:58.258Z,100.00
2022-09-10T12:08:07.338Z,100.00
2022-09-10T12:10:45.141Z,100.00
2022-09-10T12:13:15.915Z,100.00
2022-09-10T12:15:52.869Z,100.00
2022-09-10T12:18:24.819Z,100.00
2022-09-10T12:20:58.180Z,100.00
2022-09-10T12:23:33.844Z,100.00
2022-09-10T12:26:19.880Z,100.00
2022-09-10T12:28:49.740Z,100.00
2022-09-10T12:31:20.063Z,100.00
2022-09-10T12:33:46.794Z,100.00
2022-09-10T12:36:25.604Z,100.00
2022-09-10T12:39:20.484Z,100.00
2022-09-10T12:41:47.123Z,100.00
2022-09-10T12:44:29.009Z,100.00
2022-09-10T12:47:14.159Z,100.00
2022-09-10T12:49:59.702Z,100.00
2022-09-10T12:52:32.414Z,100.00
2022-09-10T12:55:29.097Z,100.00
2022-09-10T12:58:18.330Z,100.00
2022-09-10T13:00:54.346Z,100.00
2022-09-10T13:03:24.266Z,100.00
2022-09-10T13:05:54.710Z,100.00
2022-09-10T13:08:33.760Z,100.00
2022-09-10T13:11:01.336Z,100.00
2022-09-10T13:13:49.105Z,100.00
2022-09-10T13:16:38.185Z,100.00
2022-09-10T13:19:13.981Z,100.00
2022-09-10T13:21:40.729Z,100.00
2022-09-10T13:24:32.512Z,100.00
2022-09-10T13:27:10.305Z,100.00
2022-09-10T13:29:41.389Z,100.00
2022-09-10T13:32:19.910Z,100.00
2022-09-10T13:35:14.948Z,100.00
2022-09-10T13:38:05.056Z,100.00
2022-09-10T13:40:46.765Z,100.00
2022-09-10T13:43:37.838Z,100.00
2022-09-10T13:46:20.067Z,100.00
2022-09-10T13:49:06.380Z,100.00
2022-09-10T13:51:50.120Z,100.00
2022-09-10T13:54:33.306Z,100.00
2022-09-10T13:57:12.435Z,100.00
2022-09-10T13:59:41.396Z,100.00
2022-09-10T14:02:08.149Z,100.00
2022-09-10T14:04:43.016Z,100.00
2022-09-10T14:07:20.570Z,100.00
2022-09-10T14:09:56.796Z,100.00
2022-09-10T14:12:28.177Z,100.00
2022-09-10T14:14:59.619Z,100.00
2022-09-10T14:17:37.012Z,100.00
2022-09-10T14:20:18.042Z,96.59
2022-09-10T14:22:45.245Z,85.71
2022-09-10T14:25:31.212Z,72.05
2022-09-10T14:28:16.506Z,65.48
2022-09-10T14:30:44.730Z,58.01
2022-09-10T14:33:32.767Z,57.36
2022-09-10T14:36:16.479Z,50.17
2022-09-10T14:38:45.463Z,48.43
2022-09-10T14:41:21.895Z,47.90
2022-09-10T14:43:49.368Z,48.23
2022-09-10T14:46:54.317Z,45.57
2022-09-10T14:49:29.096Z,44.73
2022-09-10T14:51:58.700Z,44.49
2022-09-10T14:54:30.602Z,44.17
2022-09-10T14:56:59.354Z,42.34
2022-09-10T14:59:38.700Z,41.05
2022-09-10T15:02:31.782Z,40.19
2022-09-10T15:04:58.588Z,39.19
2022-09-10T15:07:25.455Z,41.39
2022-09-10T15:09:53.897Z,41.45
2022-09-10T15:12:30.986Z,41.22
2022-09-10T15:14:58.578Z,41.07
2022-09-10T15:17:25.828Z,40.94
2022-09-10T15:19:53.712Z,41.50
2022-09-10T15:22:25.321Z,43.82
2022-09-10T15:25:08.970Z,46.62
2022-09-10T15:27:36.123Z,50.08
2022-09-10T15:30:03.521Z,52.67
2022-09-10T15:32:30.815Z,56.28
2022-09-10T15:34:59.787Z,58.22
2022-09-10T15:37:27.082Z,61.15
2022-09-10T15:39:55.635Z,63.63
2022-09-10T15:42:22.373Z,67.18
2022-09-10T15:44:49.170Z,79.39
2022-09-10T15:47:15.910Z,92.43
2022-09-10T15:49:44.724Z,100.00
2022-09-10T15:52:13.024Z,100.00
2022-09-10T15:54:40.031Z,100.00
2022-09-10T15:57:06.829Z,100.00
2022-09-10T15:59:33.674Z,100.00
2022-09-10T16:02:00.444Z,100.00
2022-09-10T16:04:31.586Z,100.00
2022-09-10T16:07:02.107Z,100.00
2022-09-10T16:09:29.770Z,100.00
2022-09-10T16:11:56.443Z,100.00
2022-09-10T16:14:24.534Z,100.00
2022-09-10T16:16:51.769Z,100.00
2022-09-10T16:19:18.577Z,100.00
2022-09-10T16:21:45.930Z,100.00
2022-09-10T16:24:12.817Z,100.00
2022-09-10T16:26:41.635Z,100.00
2022-09-10T16:29:19.613Z,100.00
2022-09-10T16:31:46.521Z,100.00
2022-09-10T16:34:17.478Z,100.00
2022-09-10T16:36:45.468Z,100.00
2022-09-10T16:39:15.090Z,100.00
2022-09-10T16:41:51.101Z,100.00
2022-09-10T16:44:18.706Z,100.00
2022-09-10T16:46:47.017Z,100.00
2022-09-10T16:49:15.330Z,100.00
2022-09-10T16:51:43.178Z,100.00
2022-09-10T16:54:11.222Z,100.00
2022-09-10T16:56:45.107Z,100.00
2022-09-10T16:59:17.866Z,100.00
2022-09-10T17:01:47.902Z,100.00
2022-09-10T17:04:19.783Z,100.00
2022-09-10T17:06:48.542Z,100.00
2022-09-10T17:09:15.864Z,100.00
2022-09-10T17:11:42.873Z,100.00
2022-09-10T17:14:11.537Z,100.00
2022-09-10T17:16:42.200Z,100.00
2022-09-10T17:19:14.156Z,100.00
2022-09-10T17:21:45.248Z,100.00
2022-09-10T17:24:13.255Z,100.00
2022-09-10T17:26:41.355Z,100.00
2022-09-10T17:29:12.847Z,100.00
2022-09-10T17:31:39.788Z,100.00
2022-09-10T17:34:07.530Z,100.00
2022-09-10T17:36:34.883Z,100.00
2022-09-10T17:39:01.649Z,100.00
2022-09-10T17:41:29.736Z,100.00
2022-09-10T17:43:59.151Z,100.00
2022-09-10T17:46:26.774Z,100.00
2022-09-10T17:49:00.179Z,100.00
2022-09-10T17:51:30.461Z,100.00
2022-09-10T17:53:57.495Z,100.00
2022-09-10T17:56:26.527Z,100.00
2022-09-10T17:59:03.684Z,100.00
2022-09-10T18:01:38.713Z,100.00
2022-09-10T18:04:07.397Z,100.00
2022-09-10T18:06:37.805Z,100.00
2022-09-10T18:09:05.809Z,100.00
2022-09-10T18:11:36.284Z,100.00
2022-09-10T18:14:03.643Z,100.00
2022-09-10T18:16:33.012Z,100.00
2022-09-10T18:19:14.292Z,100.00
2022-09-10T18:21:42.625Z,100.00
2022-09-10T18:24:19.083Z,100.00
2022-09-10T18:26:48.222Z,100.00
2022-09-10T18:29:17.742Z,100.00
2022-09-10T18:31:47.931Z,100.00
2022-09-10T18:34:22.592Z,100.00
2022-09-10T18:36:54.507Z,100.00
2022-09-10T18:39:22.638Z,100.00
2022-09-10T18:41:49.502Z,100.00
2022-09-10T18:44:20.794Z,100.00
2022-09-10T18:46:49.523Z,100.00
2022-09-10T18:49:21.192Z,100.00
2022-09-10T18:51:49.380Z,100.00
2022-09-10T18:54:17.148Z,100.00
2022-09-10T18:56:45.208Z,100.00
2022-09-10T18:59:15.322Z,100.00
2022-09-10T19:01:43.819Z,100.00
2022-09-10T19:04:14.289Z,100.00
2022-09-10T19:06:43.080Z,100.00
2022-09-10T19:09:12.815Z,100.00
2022-09-10T19:11:45.295Z,100.00
2022-09-10T19:14:21.433Z,100.00
2022-09-10T19:16:49.824Z,100.00
2022-09-10T19:19:24.910Z,100.00
2022-09-10T19:21:54.408Z,100.00
2022-09-10T19:24:37.872Z,100.00
2022-09-10T19:27:10.575Z,100.00
2022-09-10T19:29:37.400Z,100.00
2022-09-10T19:32:04.444Z,100.00
2022-09-10T19:34:31.345Z,100.00
2022-09-10T19:36:59.042Z,100.00
2022-09-10T19:39:26.022Z,100.00
2022-09-10T19:41:52.907Z,100.00
2022-09-10T19:44:20.295Z,100.00
2022-09-10T19:46:47.415Z,100.00
2022-09-10T19:49:14.160Z,100.00
2022-09-10T19:51:41.926Z,100.00
2022-09-10T19:54:09.331Z,100.00
2022-09-10T19:56:42.346Z,100.00
2022-09-10T19:59:10.063Z,100.00
2022-09-10T20:01:41.923Z,100.00
2022-09-10T20:04:11.074Z,100.00
2022-09-10T20:06:38.561Z,100.00
2022-09-10T20:09:06.705Z,100.00
2022-09-10T20:11:35.265Z,100.00
2022-09-10T20:14:08.203Z,100.00
2022-09-10T20:16:39.832Z,100.00
2022-09-10T20:19:07.281Z,100.00
2022-09-10T20:21:35.766Z,100.00
2022-09-10T20:24:02.681Z,100.00
2022-09-10T20:26:34.483Z,100.00
2022-09-10T20:29:04.126Z,100.00
2022-09-10T20:31:33.345Z,100.00
2022-09-10T20:34:03.588Z,100.00
2022-09-10T20:36:32.135Z,100.00
2022-09-10T20:38:59.116Z,100.00
2022-09-10T20:41:30.531Z,100.00
2022-09-10T20:43:59.619Z,100.00
2022-09-10T20:46:31.003Z,100.00
2022-09-10T20:49:03.929Z,100.00
2022-09-10T20:51:32.823Z,100.00
2022-09-10T20:53:59.933Z,100.00
2022-09-10T20:56:27.410Z,100.00
2022-09-10T20:58:54.282Z,100.00
2022-09-10T21:01:26.032Z,100.00
2022-09-10T21:03:54.481Z,100.00
2022-09-10T21:06:25.279Z,100.00
2022-09-10T21:08:52.184Z,100.00
2022-09-10T21:11:21.094Z,100.00
2022-09-10T21:13:55.724Z,100.00
2022-09-10T21:16:33.972Z,100.00
2022-09-10T21:19:07.912Z,100.00
2022-09-10T21:21:35.600Z,100.00
2022-09-10T21:24:06.375Z,100.00
2022-09-10T21:26:36.065Z,100.00
2022-09-10T21:29:07.492Z,100.00
2022-09-10T21:31:35.529Z,100.00
2022-09-10T21:34:03.636Z,100.00
2022-09-10T21:36:32.144Z,100.00
2022-09-10T21:39:00.888Z,100.00
2022-09-10T21:41:33.305Z,100.00
2022-09-10T21:44:01.668Z,100.00
2022-09-10T21:46:34.272Z,100.00
2022-09-10T21:49:02.332Z,100.00
2022-09-10T21:51:29.402Z,100.00
2022-09-10T21:53:57.403Z,100.00
2022-09-10T21:56:26.236Z,100.00
2022-09-10T21:58:53.967Z,100.00
2022-09-10T22:01:24.358Z,100.00
2022-09-10T22:03:55.468Z,100.00
2022-09-10T22:06:28.833Z,100.00
2022-09-10T22:09:01.195Z,100.00
2022-09-10T22:11:31.101Z,100.00
2022-09-10T22:14:08.321Z,100.00
2022-09-10T22:16:35.767Z,100.00
2022-09-10T22:19:06.755Z,100.00
2022-09-10T22:21:36.175Z,100.00
2022-09-10T22:24:03.203Z,100.00
2022-09-10T22:26:29.956Z,100.00
2022-09-10T22:29:02.767Z,100.00
2022-09-10T22:31:32.922Z,100.00
2022-09-10T22:34:02.718Z,100.00
2022-09-10T22:36:32.584Z,100.00
2022-09-10T22:39:02.045Z,100.00
2022-09-10T22:41:31.661Z,100.00
2022-09-10T22:43:58.585Z,100.00
2022-09-10T22:46:26.662Z,100.00
2022-09-10T22:48:53.969Z,100.00
2022-09-10T22:51:23.298Z,100.00
2022-09-10T22:53:52.105Z,100.00
2022-09-10T22:56:23.610Z,100.00
2022-09-10T22:58:54.008Z,100.00
2022-09-10T23:01:24.402Z,100.00
2022-09-10T23:03:52.840Z,100.00
2022-09-10T23:06:21.889Z,100.00
2022-09-10T23:08:51.408Z,100.00
2022-09-10T23:11:18.255Z,100.00
2022-09-10T23:13:47.360Z,100.00
2022-09-10T23:16:35.865Z,100.00
2022-09-10T23:19:05.113Z,100.00
2022-09-10T23:21:33.761Z,100.00
2022-09-10T23:24:04.739Z,100.00
2022-09-10T23:26:32.009Z,100.00
2022-09-10T23:29:00.592Z,100.00
2022-09-10T23:31:29.406Z,100.00
2022-09-10T23:34:02.006Z,100.00
2022-09-10T23:36:31.434Z,100.00
2022-09-10T23:38:59.610Z,100.00
2022-09-10T23:41:26.945Z,100.00
2022-09-10T23:43:54.229Z,100.00
2022-09-10T23:46:21.682Z,100.00
2022-09-10T23:48:49.504Z,100.00
2022-09-10T23:51:19.254Z,100.00
2022-09-10T23:53:46.789Z,100.00
2022-09-10T23:56:15.402Z,100.00
2022-09-10T23:58:42.518Z,100.00
